Isle of Rum, United Kingdom
Current Conditions -  °F | °C
As of 7:50 AM on Tuesday 21 Oct 2014 (Local Time) from EGPU Reporting Station
Few Clouds Few Clouds  
Wind Chill: 39°   Ceiling: Unl
Heat Index: 48°   Visibility: 6mi
Dew Point: 39°   Wind: 38mph
Humidity: 71%   Direction: 310°NW
Pressure: 29.32"   Gusts: 54mph
Location:  57.01°N, 6.28°W
Report Text: EGPU 210650Z AUTO 31033G47KT 9999 FEW037/// 09/04 Q0993 RERA
Loading
Personal Weather Stations






























Interactive Weather Map New forecast layout! Learn more

10-Day Weather Forecast

Advertisements
Track Severe Weather on mobile